Time;durP1;ratioP1;P1;durP2;ratioP2;P2;SDS_P1;SDS_P2;PMS_P1;PMS_P2;Temp;Humidity;BMP_temperature;BMP_pressure;BME280_temperature;BME280_humidity;BME280_pressure;Samples;Min_cycle;Max_cycle;Signal;HPM_P1;HPM_P2
2022/06/05 00:00:58;;;;;;;;;;;;;;;14.85;92.51;101928.53;7381211;19;19922;-75
2022/06/05 00:03:33;;;;;;;;;;;;;;;14.83;92.99;101932.91;7380803;19;19951;-75
2022/06/05 00:06:07;;;;;;;;;;;;;;;14.81;92.69;101930.25;7382598;19;20320;-75
2022/06/05 00:08:44;;;;;;;;;;;;;;;14.85;92.49;101936.44;7385511;19;19923;-75
2022/06/05 00:11:15;;;;;;;;;;;;;;;14.78;92.34;101935.47;7388362;19;19907;-75
2022/06/05 00:13:46;;;;;;;;;;;;;;;14.78;92.60;101931.94;7388848;19;19922;-76
2022/06/05 00:16:17;;;;;;;;;;;;;;;14.81;92.45;101921.44;7387210;19;20223;-77
2022/06/05 00:18:47;;;;;;;;;;;;;;;14.82;92.00;101928.47;7387199;19;19934;-76
2022/06/05 00:21:17;;;;;;;;;;;;;;;14.71;92.98;101923.94;7385599;19;19974;-77
2022/06/05 00:23:50;;;;;;;;;;;;;;;14.78;92.29;101924.91;7386944;19;20441;-77
2022/06/05 00:26:26;;;;;;;;;;;;;;;14.80;92.21;101920.53;7386695;19;19918;-76
2022/06/05 00:29:00;;;;;;;;;;;;;;;14.77;92.57;101923.13;7389518;19;19922;-76
2022/06/05 00:31:34;;;;;;;;;;;;;;;14.70;92.67;101916.88;7385512;19;19935;-75
2022/06/05 00:34:03;;;;;;;;;;;;;;;14.64;92.79;101908.00;7387309;19;19919;-76
2022/06/05 00:36:51;;;;;;;;;;;;;;;14.63;92.87;101908.88;7384484;19;19919;-76
2022/06/05 00:39:28;;;;;;;;;;;;;;;14.68;92.49;101897.50;7385412;19;19919;-75
2022/06/05 00:42:00;;;;;;;;;;;;;;;14.56;92.79;101894.69;7385822;19;20355;-76
2022/06/05 00:44:32;;;;;;;;;;;;;;;14.53;93.83;101894.69;7386638;19;19947;-75
2022/06/05 00:47:02;;;;;;;;;;;;;;;14.59;93.48;101892.09;7388124;19;19914;-76
2022/06/05 00:49:36;;;;;;;;;;;;;;;14.52;93.61;101887.63;7386016;19;19921;-75
2022/06/05 00:52:06;;;;;;;;;;;;;;;14.54;93.18;101890.28;7385882;19;20325;-76
2022/06/05 00:54:38;;;;;;;;;;;;;;;14.51;94.03;101887.59;7385260;19;19918;-75
2022/06/05 00:57:09;;;;;;;;;;;;;;;14.50;93.82;101892.00;7384393;19;20231;-75
2022/06/05 00:59:40;;;;;;;;;;;;;;;14.50;93.47;101905.19;7388983;19;19918;-74
2022/06/05 01:02:10;;;;;;;;;;;;;;;14.42;94.34;101903.31;7386372;19;19957;-75
2022/06/05 01:04:43;;;;;;;;;;;;;;;14.39;94.04;101893.56;7387229;19;19914;-75
2022/06/05 01:07:13;;;;;;;;;;;;;;;14.44;94.04;101885.75;7387111;19;19978;-75
2022/06/05 01:09:47;;;;;;;;;;;;;;;14.43;94.28;101879.59;7384760;19;19910;-75
2022/06/05 01:12:23;;;;;;;;;;;;;;;14.44;94.20;101888.41;7385894;19;20009;-75
2022/06/05 01:14:59;;;;;;;;;;;;;;;14.44;93.76;101913.03;7385807;19;19917;-74
2022/06/05 01:17:34;;;;;;;;;;;;;;;14.43;93.17;101942.94;7385050;19;19914;-74
2022/06/05 01:20:08;;;;;;;;;;;;;;;14.42;93.94;101983.38;7389002;19;20295;-75
2022/06/05 01:22:59;;;;;;;;;;;;;;;14.36;94.35;101988.53;7384685;19;19922;-75
2022/06/05 01:25:43;;;;;;;;;;;;;;;14.35;94.10;101965.66;7387838;19;19947;-75
2022/06/05 01:28:19;;;;;;;;;;;;;;;14.38;94.09;101976.25;7384590;19;20334;-75
2022/06/05 01:30:52;;;;;;;;;;;;;;;14.34;94.11;101991.16;7384043;19;19922;-75
2022/06/05 01:33:24;;;;;;;;;;;;;;;14.37;94.13;101988.56;7383988;19;19922;-76
2022/06/05 01:36:02;;;;;;;;;;;;;;;14.38;94.44;101966.56;7382839;19;19922;-76
2022/06/05 01:38:36;;;;;;;;;;;;;;;14.40;95.09;101979.81;7384866;19;19914;-76
2022/06/05 01:41:09;;;;;;;;;;;;;;;14.41;94.88;101981.56;7385877;19;20384;-76
2022/06/05 01:43:45;;;;;;;;;;;;;;;14.40;94.81;101961.31;7384168;19;19951;-75
2022/06/05 01:46:17;;;;;;;;;;;;;;;14.42;95.27;101951.72;7383872;19;20548;-76
2022/06/05 01:48:51;;;;;;;;;;;;;;;14.45;95.06;101957.03;7382122;19;19955;-76
2022/06/05 01:51:24;;;;;;;;;;;;;;;14.44;94.84;101967.56;7385423;19;19959;-76
2022/06/05 01:53:56;;;;;;;;;;;;;;;14.42;94.97;101957.00;7383468;19;19930;-76
2022/06/05 01:56:27;;;;;;;;;;;;;;;14.45;95.36;101964.97;7383489;19;19996;-76
2022/06/05 01:59:03;;;;;;;;;;;;;;;14.44;96.72;101954.38;7385806;19;19954;-76
2022/06/05 02:01:36;;;;;;;;;;;;;;;14.39;99.63;101925.25;7385520;19;19947;-75
2022/06/05 02:04:09;;;;;;;;;;;;;;;14.39;100.00;101926.13;7387263;19;19907;-75
2022/06/05 02:06:41;;;;;;;;;;;;;;;14.39;100.00;101930.53;7383791;19;19935;-75
2022/06/05 02:09:13;;;;;;;;;;;;;;;14.30;100.00;101914.53;7382703;19;20419;-75
2022/06/05 02:11:43;;;;;;;;;;;;;;;14.23;100.00;101910.03;7382344;19;19922;-73
2022/06/05 02:14:16;;;;;;;;;;;;;;;14.14;100.00;101908.16;7384496;19;19914;-73
2022/06/05 02:16:46;;;;;;;;;;;;;;;14.15;100.00;101914.31;7382471;19;19919;-73
2022/06/05 02:19:17;;;;;;;;;;;;;;;14.13;100.00;101906.38;7384121;19;19971;-73
2022/06/05 02:21:48;;;;;;;;;;;;;;;14.11;100.00;101901.94;7381764;19;19919;-73
2022/06/05 02:24:18;;;;;;;;;;;;;;;13.99;100.00;101892.97;7387369;19;19947;-73
2022/06/05 02:26:47;;;;;;;;;;;;;;;13.95;100.00;101888.50;7384211;19;19926;-74
2022/06/05 02:29:22;;;;;;;;;;;;;;;13.80;100.00;101880.34;7381984;19;19925;-73
2022/06/05 02:31:56;;;;;;;;;;;;;;;13.81;100.00;101874.19;7383940;19;19922;-74
2022/06/05 02:34:32;;;;;;;;;;;;;;;13.77;100.00;101858.31;7386034;19;20665;-73
2022/06/05 02:37:05;;;;;;;;;;;;;;;13.74;100.00;101859.16;7382250;19;19956;-74
2022/06/05 02:39:39;;;;;;;;;;;;;;;13.69;100.00;101845.00;7384440;19;20337;-72
2022/06/05 02:42:16;;;;;;;;;;;;;;;13.65;100.00;101833.50;7384428;19;19937;-74
2022/06/05 02:44:53;;;;;;;;;;;;;;;13.58;100.00;101826.38;7385234;19;19990;-74
2022/06/05 02:47:28;;;;;;;;;;;;;;;13.61;100.00;101804.44;7384084;19;19927;-74
2022/06/05 02:50:03;;;;;;;;;;;;;;;13.61;100.00;101807.97;7383567;19;19922;-74
2022/06/05 02:52:33;;;;;;;;;;;;;;;13.48;100.00;101807.78;7383908;19;19918;-74
2022/06/05 02:55:05;;;;;;;;;;;;;;;13.41;100.00;101802.41;7382599;19;19919;-75
2022/06/05 02:57:35;;;;;;;;;;;;;;;13.47;100.00;101798.97;7381349;19;19907;-75
2022/06/05 03:00:09;;;;;;;;;;;;;;;13.41;100.00;101791.84;7384253;19;19974;-75
2022/06/05 03:05:21;;;;;;;;;;;;;;;13.31;100.00;101754.78;7384630;19;19952;-75
2022/06/05 03:07:53;;;;;;;;;;;;;;;13.24;100.00;101745.00;7383476;19;19918;-76
2022/06/05 03:10:23;;;;;;;;;;;;;;;13.24;100.00;101739.75;7384400;19;19919;-76
2022/06/05 03:12:53;;;;;;;;;;;;;;;13.24;100.00;101737.09;7381802;19;19923;-77
2022/06/05 03:15:25;;;;;;;;;;;;;;;13.13;100.00;101731.63;7382930;19;19919;-77
2022/06/05 03:17:55;;;;;;;;;;;;;;;13.12;100.00;101736.88;7381492;19;19930;-77
2022/06/05 03:20:24;;;;;;;;;;;;;;;13.10;100.00;101732.47;7380444;19;19915;-77
2022/06/05 03:22:54;;;;;;;;;;;;;;;13.05;100.00;101722.72;7380617;19;19933;-77
2022/06/05 03:25:25;;;;;;;;;;;;;;;13.03;100.00;101719.16;7381549;19;19926;-76
2022/06/05 03:27:55;;;;;;;;;;;;;;;13.02;100.00;101718.28;7383049;19;19926;-77
2022/06/05 03:30:27;;;;;;;;;;;;;;;12.93;100.00;101711.97;7379855;19;19910;-77
2022/06/05 03:32:57;;;;;;;;;;;;;;;13.02;100.00;101706.84;7380433;19;19915;-77
2022/06/05 03:35:26;;;;;;;;;;;;;;;12.92;100.00;101697.03;7381015;19;19957;-77
2022/06/05 03:37:56;;;;;;;;;;;;;;;12.84;100.00;101694.25;7379387;19;19922;-77
2022/06/05 03:40:25;;;;;;;;;;;;;;;12.86;100.00;101689.03;7389309;19;19977;-77
2022/06/05 03:42:56;;;;;;;;;;;;;;;12.83;100.00;101688.97;7387195;19;20293;-77
2022/06/05 03:45:28;;;;;;;;;;;;;;;12.86;100.00;101683.75;7389328;19;20154;-77
